sensor_id;sensor_type;location;lat;lon;timestamp;pressure;altitude;pressure_sealevel;temperature;humidity
78673;BME280;67988;60.086;30.354;2023-03-01T00:02:13;101122.19;;;-3.77;51.16
78673;BME280;67988;60.086;30.354;2023-03-01T00:04:40;101124.78;;;-3.77;51.11
78673;BME280;67988;60.086;30.354;2023-03-01T00:07:07;101122.13;;;-3.73;51.07
78673;BME280;67988;60.086;30.354;2023-03-01T00:09:36;101151.59;;;-3.74;51.26
78673;BME280;67988;60.086;30.354;2023-03-01T00:12:03;101137.75;;;-3.74;51.54
78673;BME280;67988;60.086;30.354;2023-03-01T00:14:30;101125.63;;;-3.75;51.25
78673;BME280;67988;60.086;30.354;2023-03-01T00:16:57;101132.53;;;-3.74;51.65
78673;BME280;67988;60.086;30.354;2023-03-01T00:19:25;101133.34;;;-3.69;51.62
78673;BME280;67988;60.086;30.354;2023-03-01T00:21:52;101140.22;;;-3.65;51.70
78673;BME280;67988;60.086;30.354;2023-03-01T00:24:19;101095.34;;;-3.80;51.73
78673;BME280;67988;60.086;30.354;2023-03-01T00:26:46;101121.25;;;-3.72;51.89
78673;BME280;67988;60.086;30.354;2023-03-01T00:29:13;101126.31;;;-3.63;51.96
78673;BME280;67988;60.086;30.354;2023-03-01T00:31:40;101120.25;;;-3.63;51.98
78673;BME280;67988;60.086;30.354;2023-03-01T00:34:07;101104.81;;;-3.74;52.17
78673;BME280;67988;60.086;30.354;2023-03-01T00:36:37;101144.44;;;-3.55;52.08
78673;BME280;67988;60.086;30.354;2023-03-01T00:39:09;101123.56;;;-3.52;52.09
78673;BME280;67988;60.086;30.354;2023-03-01T00:41:37;101125.31;;;-3.54;52.20
78673;BME280;67988;60.086;30.354;2023-03-01T00:44:05;101123.53;;;-3.49;52.09
78673;BME280;67988;60.086;30.354;2023-03-01T00:46:34;101124.34;;;-3.46;52.25
78673;BME280;67988;60.086;30.354;2023-03-01T00:49:02;101131.22;;;-3.43;52.13
78673;BME280;67988;60.086;30.354;2023-03-01T00:51:30;101140.75;;;-3.42;52.38
78673;BME280;67988;60.086;30.354;2023-03-01T00:54:00;101147.72;;;-3.43;52.48
78673;BME280;67988;60.086;30.354;2023-03-01T00:56:28;101142.41;;;-3.35;52.43
78673;BME280;67988;60.086;30.354;2023-03-01T00:58:55;101111.28;;;-3.43;52.51
78673;BME280;67988;60.086;30.354;2023-03-01T01:01:24;101139.72;;;-3.30;52.46
78673;BME280;67988;60.086;30.354;2023-03-01T01:03:55;101137.16;;;-3.32;52.78
78673;BME280;67988;60.086;30.354;2023-03-01T01:06:24;101143.19;;;-3.28;52.65
78673;BME280;67988;60.086;30.354;2023-03-01T01:08:53;101134.38;;;-3.21;52.47
78673;BME280;67988;60.086;30.354;2023-03-01T01:11:23;101057.91;;;-3.68;52.66
78673;BME280;67988;60.086;30.354;2023-03-01T01:13:51;101142.16;;;-3.17;52.49
78673;BME280;67988;60.086;30.354;2023-03-01T01:16:20;101156.06;;;-3.21;52.80
78673;BME280;67988;60.086;30.354;2023-03-01T01:18:48;101136.00;;;-3.13;52.85
78673;BME280;67988;60.086;30.354;2023-03-01T01:21:17;101130.91;;;-3.20;53.20
78673;BME280;67988;60.086;30.354;2023-03-01T01:23:45;101137.03;;;-3.24;53.04
78673;BME280;67988;60.086;30.354;2023-03-01T01:26:17;101146.41;;;-3.11;53.13
78673;BME280;67988;60.086;30.354;2023-03-01T01:28:47;101133.41;;;-3.13;53.25
78673;BME280;67988;60.086;30.354;2023-03-01T01:31:14;101154.16;;;-3.10;53.23
78673;BME280;67988;60.086;30.354;2023-03-01T01:33:42;101058.56;;;-3.52;53.18
78673;BME280;67988;60.086;30.354;2023-03-01T01:36:10;101122.06;;;-3.10;53.58
78673;BME280;67988;60.086;30.354;2023-03-01T01:38:38;101127.25;;;-3.07;53.33
78673;BME280;67988;60.086;30.354;2023-03-01T01:41:05;101124.66;;;-3.10;53.63
78673;BME280;67988;60.086;30.354;2023-03-01T01:43:34;101083.53;;;-3.41;53.87
78673;BME280;67988;60.086;30.354;2023-03-01T01:46:05;101136.81;;;-3.11;53.84
78673;BME280;67988;60.086;30.354;2023-03-01T01:48:39;101124.81;;;-3.18;54.52
78673;BME280;67988;60.086;30.354;2023-03-01T01:51:10;101132.63;;;-3.18;54.41
78673;BME280;67988;60.086;30.354;2023-03-01T01:53:39;101130.13;;;-3.25;54.74
78673;BME280;67988;60.086;30.354;2023-03-01T01:56:08;101134.38;;;-3.21;54.56
78673;BME280;67988;60.086;30.354;2023-03-01T01:58:39;101134.38;;;-3.21;54.82
78673;BME280;67988;60.086;30.354;2023-03-01T02:01:09;101146.56;;;-3.23;54.80
78673;BME280;67988;60.086;30.354;2023-03-01T02:03:39;101137.13;;;-3.29;55.16
78673;BME280;67988;60.086;30.354;2023-03-01T02:06:13;101147.63;;;-3.35;55.55
78673;BME280;67988;60.086;30.354;2023-03-01T02:08:44;101150.16;;;-3.32;55.60
78673;BME280;67988;60.086;30.354;2023-03-01T02:11:12;101158.03;;;-3.37;56.03
78673;BME280;67988;60.086;30.354;2023-03-01T02:13:41;101156.31;;;-3.38;55.92
78673;BME280;67988;60.086;30.354;2023-03-01T02:16:11;101168.50;;;-3.40;56.08
78673;BME280;67988;60.086;30.354;2023-03-01T02:18:39;101158.13;;;-3.43;55.95
78673;BME280;67988;60.086;30.354;2023-03-01T02:21:17;101180.72;;;-3.45;56.62
78673;BME280;67988;60.086;30.354;2023-03-01T02:23:48;101158.16;;;-3.46;56.60
78673;BME280;67988;60.086;30.354;2023-03-01T02:26:20;101166.84;;;-3.48;56.73
78673;BME280;67988;60.086;30.354;2023-03-01T02:28:52;101153.13;;;-3.59;56.87
78673;BME280;67988;60.086;30.354;2023-03-01T02:31:20;101167.75;;;-3.49;56.80
78673;BME280;67988;60.086;30.354;2023-03-01T02:34:06;101175.59;;;-3.52;57.19
78673;BME280;67988;60.086;30.354;2023-03-01T02:36:36;101176.50;;;-3.55;57.39
78673;BME280;67988;60.086;30.354;2023-03-01T02:39:06;101167.88;;;-3.60;57.43
78673;BME280;67988;60.086;30.354;2023-03-01T02:41:43;101182.66;;;-3.60;57.38
78673;BME280;67988;60.086;30.354;2023-03-01T02:44:12;101183.47;;;-3.57;57.49
78673;BME280;67988;60.086;30.354;2023-03-01T02:46:44;101163.59;;;-3.62;57.43
78673;BME280;67988;60.086;30.354;2023-03-01T02:49:20;101174.78;;;-3.57;57.67
78673;BME280;67988;60.086;30.354;2023-03-01T02:51:56;101182.59;;;-3.57;57.36
78673;BME280;67988;60.086;30.354;2023-03-01T02:54:30;101171.47;;;-3.67;57.87
78673;BME280;67988;60.086;30.354;2023-03-01T02:57:00;101174.00;;;-3.64;57.75
78673;BME280;67988;60.086;30.354;2023-03-01T02:59:34;101175.72;;;-3.61;57.69
78673;BME280;67988;60.086;30.354;2023-03-01T03:02:06;101162.75;;;-3.64;57.48
78673;BME280;67988;60.086;30.354;2023-03-01T03:04:33;101178.34;;;-3.64;57.77
78673;BME280;67988;60.086;30.354;2023-03-01T03:07:01;101167.13;;;-3.68;57.65
78673;BME280;67988;60.086;30.354;2023-03-01T03:09:27;101174.91;;;-3.66;57.59
78673;BME280;67988;60.086;30.354;2023-03-01T03:11:55;101174.88;;;-3.65;57.50
78673;BME280;67988;60.086;30.354;2023-03-01T03:14:23;101161.97;;;-3.71;57.34
78673;BME280;67988;60.086;30.354;2023-03-01T03:16:51;101167.28;;;-3.82;57.95
78673;BME280;67988;60.086;30.354;2023-03-01T03:19:19;101170.66;;;-3.73;57.81
78673;BME280;67988;60.086;30.354;2023-03-01T03:21:46;101164.66;;;-3.80;57.93
78673;BME280;67988;60.086;30.354;2023-03-01T03:24:13;101188.06;;;-3.77;57.89
78673;BME280;67988;60.086;30.354;2023-03-01T03:26:40;101175.06;;;-3.77;57.95
78673;BME280;67988;60.086;30.354;2023-03-01T03:29:07;101176.75;;;-3.76;57.87
78673;BME280;67988;60.086;30.354;2023-03-01T03:31:34;101173.31;;;-3.76;57.89
78673;BME280;67988;60.086;30.354;2023-03-01T03:34:02;101183.72;;;-3.78;57.75
78673;BME280;67988;60.086;30.354;2023-03-01T03:36:29;101172.47;;;-3.82;57.92
78673;BME280;67988;60.086;30.354;2023-03-01T03:38:55;101172.53;;;-3.85;57.85
78673;BME280;67988;60.086;30.354;2023-03-01T03:41:22;101177.78;;;-3.89;57.93
78673;BME280;67988;60.086;30.354;2023-03-01T03:43:49;101167.50;;;-3.98;58.17
78673;BME280;67988;60.086;30.354;2023-03-01T03:46:16;101173.47;;;-3.89;58.34
78673;BME280;67988;60.086;30.354;2023-03-01T03:48:44;101179.59;;;-3.96;58.27
78673;BME280;67988;60.086;30.354;2023-03-01T03:51:13;101180.47;;;-3.97;58.54
78673;BME280;67988;60.086;30.354;2023-03-01T03:53:41;101177.06;;;-4.00;58.38
78673;BME280;67988;60.086;30.354;2023-03-01T03:56:08;101183.97;;;-4.01;58.49
78673;BME280;67988;60.086;30.354;2023-03-01T03:58:35;101171.91;;;-4.06;58.45
78673;BME280;67988;60.086;30.354;2023-03-01T04:01:03;101176.25;;;-4.07;58.48
78673;BME280;67988;60.086;30.354;2023-03-01T04:03:30;101187.47;;;-4.02;58.64
78673;BME280;67988;60.086;30.354;2023-03-01T04:05:59;101181.44;;;-4.07;58.73
78673;BME280;67988;60.086;30.354;2023-03-01T04:08:28;101178.97;;;-4.17;59.11
78673;BME280;67988;60.086;30.354;2023-03-01T04:11:00;101157.44;;;-4.27;59.05
78673;BME280;67988;60.086;30.354;2023-03-01T04:13:48;101186.72;;;-4.14;59.11
78673;BME280;67988;60.086;30.354;2023-03-01T04:16:16;101187.66;;;-4.20;59.39
78673;BME280;67988;60.086;30.354;2023-03-01T04:18:43;101186.81;;;-4.25;59.44
78673;BME280;67988;60.086;30.354;2023-03-01T04:21:11;101160.19;;;-4.47;59.64
78673;BME280;67988;60.086;30.354;2023-03-01T04:23:39;101182.59;;;-4.34;59.89
78673;BME280;67988;60.086;30.354;2023-03-01T04:26:07;101161.78;;;-4.31;59.90
78673;BME280;67988;60.086;30.354;2023-03-01T04:28:35;101127.44;;;-4.58;59.86
78673;BME280;67988;60.086;30.354;2023-03-01T04:31:05;101184.28;;;-4.28;59.81
78673;BME280;67988;60.086;30.354;2023-03-01T04:33:38;101180.84;;;-4.32;59.73
78673;BME280;67988;60.086;30.354;2023-03-01T04:36:07;101179.13;;;-4.34;59.81
78673;BME280;67988;60.086;30.354;2023-03-01T04:38:35;101191.25;;;-4.33;59.74
78673;BME280;67988;60.086;30.354;2023-03-01T04:41:05;101186.97;;;-4.37;59.89
78673;BME280;67988;60.086;30.354;2023-03-01T04:43:32;101118.16;;;-4.84;60.26
78673;BME280;67988;60.086;30.354;2023-03-01T04:46:00;101199.16;;;-4.44;60.23
78673;BME280;67988;60.086;30.354;2023-03-01T04:48:29;101216.50;;;-4.50;60.16
78673;BME280;67988;60.086;30.354;2023-03-01T04:50:56;101210.44;;;-4.51;60.40
78673;BME280;67988;60.086;30.354;2023-03-01T04:53:23;101217.38;;;-4.48;60.52
78673;BME280;67988;60.086;30.354;2023-03-01T04:55:50;101218.28;;;-4.55;60.71
78673;BME280;67988;60.086;30.354;2023-03-01T04:58:18;101235.56;;;-4.50;60.62
78673;BME280;67988;60.086;30.354;2023-03-01T05:00:45;101230.34;;;-4.50;60.60
78673;BME280;67988;60.086;30.354;2023-03-01T05:03:12;101216.56;;;-4.53;60.60
78673;BME280;67988;60.086;30.354;2023-03-01T05:05:45;101228.66;;;-4.55;60.76
78673;BME280;67988;60.086;30.354;2023-03-01T05:08:13;101218.28;;;-4.55;60.63
78673;BME280;67988;60.086;30.354;2023-03-01T05:10:44;101211.41;;;-4.61;60.79
78673;BME280;67988;60.086;30.354;2023-03-01T05:13:12;101214.88;;;-4.59;61.12
78673;BME280;67988;60.086;30.354;2023-03-01T05:15:41;101215.69;;;-4.54;61.08
78673;BME280;67988;60.086;30.354;2023-03-01T05:18:08;101226.91;;;-4.52;60.65
78673;BME280;67988;60.086;30.354;2023-03-01T05:20:37;101216.50;;;-4.52;60.81
78673;BME280;67988;60.086;30.354;2023-03-01T05:23:05;101214.81;;;-4.56;60.56
78673;BME280;67988;60.086;30.354;2023-03-01T05:25:32;101218.25;;;-4.49;60.66
78673;BME280;67988;60.086;30.354;2023-03-01T05:28:00;101216.56;;;-4.53;60.96
78673;BME280;67988;60.086;30.354;2023-03-01T05:30:30;101220.88;;;-4.55;60.92
78673;BME280;67988;60.086;30.354;2023-03-01T05:32:59;101227.75;;;-4.51;60.92
78673;BME280;67988;60.086;30.354;2023-03-01T05:35:27;101238.97;;;-4.46;60.80
78673;BME280;67988;60.086;30.354;2023-03-01T05:37:54;101233.00;;;-4.54;61.07
78673;BME280;67988;60.086;30.354;2023-03-01T05:40:23;101241.69;;;-4.63;61.44
78673;BME280;67988;60.086;30.354;2023-03-01T05:42:53;101228.72;;;-4.58;61.24
78673;BME280;67988;60.086;30.354;2023-03-01T05:45:22;101235.63;;;-4.60;61.42
78673;BME280;67988;60.086;30.354;2023-03-01T05:47:50;101244.28;;;-4.61;61.70
78673;BME280;67988;60.086;30.354;2023-03-01T05:50:21;101227.75;;;-4.51;61.12
78673;BME280;67988;60.086;30.354;2023-03-01T05:52:49;101220.06;;;-4.59;61.49
78673;BME280;67988;60.086;30.354;2023-03-01T05:55:18;101215.72;;;-4.60;61.55
78673;BME280;67988;60.086;30.354;2023-03-01T05:57:45;101236.41;;;-4.48;61.36
78673;BME280;67988;60.086;30.354;2023-03-01T06:00:14;101231.19;;;-4.46;61.33
78673;BME280;67988;60.086;30.354;2023-03-01T06:02:41;101235.59;;;-4.57;61.48
78673;BME280;67988;60.086;30.354;2023-03-01T06:05:09;101244.25;;;-4.55;61.84
78673;BME280;67988;60.086;30.354;2023-03-01T06:07:38;101230.41;;;-4.53;61.77
78673;BME280;67988;60.086;30.354;2023-03-01T06:10:07;101214.75;;;-4.47;61.38
78673;BME280;67988;60.086;30.354;2023-03-01T06:12:37;101236.38;;;-4.45;61.44
78673;BME280;67988;60.086;30.354;2023-03-01T06:15:06;101239.84;;;-4.46;61.32
78673;BME280;67988;60.086;30.354;2023-03-01T06:17:36;101229.50;;;-4.47;61.51
78673;BME280;67988;60.086;30.354;2023-03-01T06:20:04;101232.91;;;-4.44;61.53
78673;BME280;67988;60.086;30.354;2023-03-01T06:22:31;101228.50;;;-4.36;61.06
78673;BME280;67988;60.086;30.354;2023-03-01T06:24:59;101222.44;;;-4.36;61.01
78673;BME280;67988;60.086;30.354;2023-03-01T06:27:26;101218.88;;;-4.25;60.89
78673;BME280;67988;60.086;30.354;2023-03-01T06:29:52;101218.88;;;-4.25;60.91
78673;BME280;67988;60.086;30.354;2023-03-01T06:32:19;101237.00;;;-4.18;60.73
78673;BME280;67988;60.086;30.354;2023-03-01T06:34:46;101214.47;;;-4.15;60.55
78673;BME280;67988;60.086;30.354;2023-03-01T06:37:13;101223.91;;;-4.08;60.42
78673;BME280;67988;60.086;30.354;2023-03-01T06:39:40;101218.66;;;-4.03;60.32
78673;BME280;67988;60.086;30.354;2023-03-01T06:42:09;101229.03;;;-3.99;60.43
78673;BME280;67988;60.086;30.354;2023-03-01T06:44:36;101186.75;;;-4.17;59.81
78673;BME280;67988;60.086;30.354;2023-03-01T06:47:04;101223.78;;;-3.96;59.99
78673;BME280;67988;60.086;30.354;2023-03-01T06:49:31;101224.59;;;-3.92;60.08
78673;BME280;67988;60.086;30.354;2023-03-01T06:51:57;101241.88;;;-3.87;60.02
78673;BME280;67988;60.086;30.354;2023-03-01T06:54:25;101228.00;;;-3.86;60.07
78673;BME280;67988;60.086;30.354;2023-03-01T06:56:52;101232.28;;;-3.80;59.79
78673;BME280;67988;60.086;30.354;2023-03-01T06:59:20;101227.00;;;-3.75;59.41
78673;BME280;67988;60.086;30.354;2023-03-01T07:01:47;101201.81;;;-3.70;59.43
78673;BME280;67988;60.086;30.354;2023-03-01T07:04:14;101232.94;;;-3.64;59.35
78673;BME280;67988;60.086;30.354;2023-03-01T07:06:41;101232.06;;;-3.63;59.25
78673;BME280;67988;60.086;30.354;2023-03-01T07:09:08;101243.22;;;-3.52;59.12
78673;BME280;67988;60.086;30.354;2023-03-01T07:11:35;101225.78;;;-3.44;58.81
78673;BME280;67988;60.086;30.354;2023-03-01T07:14:02;101230.94;;;-3.41;58.68
78673;BME280;67988;60.086;30.354;2023-03-01T07:16:30;101233.47;;;-3.33;58.36
78673;BME280;67988;60.086;30.354;2023-03-01T07:18:57;101234.31;;;-3.33;58.53
78673;BME280;67988;60.086;30.354;2023-03-01T07:21:24;101233.47;;;-3.35;58.67
78673;BME280;67988;60.086;30.354;2023-03-01T07:23:51;101226.47;;;-3.31;58.27
78673;BME280;67988;60.086;30.354;2023-03-01T07:26:18;101235.00;;;-3.20;57.96
78673;BME280;67988;60.086;30.354;2023-03-01T07:28:45;101230.50;;;-3.09;57.86
78673;BME280;67988;60.086;30.354;2023-03-01T07:31:12;101228.91;;;-3.19;57.78
78673;BME280;67988;60.086;30.354;2023-03-01T07:33:40;101248.72;;;-3.06;57.57
78673;BME280;67988;60.086;30.354;2023-03-01T07:36:08;101254.78;;;-3.07;57.63
78673;BME280;67988;60.086;30.354;2023-03-01T07:38:35;101213.00;;;-3.00;57.32
78673;BME280;67988;60.086;30.354;2023-03-01T07:41:02;101216.53;;;-3.02;57.38
78673;BME280;67988;60.086;30.354;2023-03-01T07:43:31;101224.19;;;-2.90;57.13
78673;BME280;67988;60.086;30.354;2023-03-01T07:45:59;101218.09;;;-2.90;56.97
78673;BME280;67988;60.086;30.354;2023-03-01T07:48:27;101221.53;;;-2.88;57.19
78673;BME280;67988;60.086;30.354;2023-03-01T07:50:57;101197.19;;;-2.84;56.94
78673;BME280;67988;60.086;30.354;2023-03-01T07:53:24;101184.09;;;-2.81;57.37
78673;BME280;67988;60.086;30.354;2023-03-01T07:56:00;101188.31;;;-2.73;56.87
78673;BME280;67988;60.086;30.354;2023-03-01T07:58:27;101175.06;;;-2.61;56.67
78673;BME280;67988;60.086;30.354;2023-03-01T08:00:54;101176.81;;;-2.61;56.36
78673;BME280;67988;60.086;30.354;2023-03-01T08:03:21;101171.50;;;-2.55;56.41
78673;BME280;67988;60.086;30.354;2023-03-01T08:05:48;101174.78;;;-2.42;56.00
78673;BME280;67988;60.086;30.354;2023-03-01T08:08:17;101167.91;;;-2.46;56.06
78673;BME280;67988;60.086;30.354;2023-03-01T08:10:43;101165.00;;;-2.31;55.73
78673;BME280;67988;60.086;30.354;2023-03-01T08:13:10;101151.78;;;-2.21;55.58
78673;BME280;67988;60.086;30.354;2023-03-01T08:15:37;101158.63;;;-2.15;55.31
78673;BME280;67988;60.086;30.354;2023-03-01T08:18:04;101156.06;;;-2.18;55.23
78673;BME280;67988;60.086;30.354;2023-03-01T08:20:32;101149.66;;;-2.00;55.13
78673;BME280;67988;60.086;30.354;2023-03-01T08:22:59;101173.03;;;-1.96;54.77
78673;BME280;67988;60.086;30.354;2023-03-01T08:25:27;101163.44;;;-1.95;54.71
78673;BME280;67988;60.086;30.354;2023-03-01T08:27:54;101155.63;;;-1.95;54.52
78673;BME280;67988;60.086;30.354;2023-03-01T08:30:21;101086.72;;;-2.25;54.54
78673;BME280;67988;60.086;30.354;2023-03-01T08:32:49;101089.41;;;-2.30;54.33
78673;BME280;67988;60.086;30.354;2023-03-01T08:35:17;101147.03;;;-2.00;55.03
78673;BME280;67988;60.086;30.354;2023-03-01T08:37:44;101143.31;;;-1.87;55.01
78673;BME280;67988;60.086;30.354;2023-03-01T08:40:12;101146.09;;;-1.53;54.35
78673;BME280;67988;60.086;30.354;2023-03-01T08:42:41;101151.31;;;-1.55;54.07
78673;BME280;67988;60.086;30.354;2023-03-01T08:45:10;101162.00;;;-1.65;54.19
78673;BME280;67988;60.086;30.354;2023-03-01T08:47:38;101169.84;;;-1.67;54.38
78673;BME280;67988;60.086;30.354;2023-03-01T08:50:06;101170.50;;;-1.57;54.41
78673;BME280;67988;60.086;30.354;2023-03-01T08:52:33;101159.38;;;-1.65;54.65
78673;BME280;67988;60.086;30.354;2023-03-01T08:55:00;101177.63;;;-1.64;54.63
78673;BME280;67988;60.086;30.354;2023-03-01T08:57:28;101152.16;;;-1.53;54.64
78673;BME280;67988;60.086;30.354;2023-03-01T08:59:57;101164.41;;;-1.56;54.63
78673;BME280;67988;60.086;30.354;2023-03-01T09:02:24;101123.41;;;-1.51;53.77
78673;BME280;67988;60.086;30.354;2023-03-01T09:04:51;101167.38;;;-1.33;54.02
78673;BME280;67988;60.086;30.354;2023-03-01T09:07:18;101149.31;;;-1.42;54.26
78673;BME280;67988;60.086;30.354;2023-03-01T09:09:45;101159.06;;;-1.50;54.53
78673;BME280;67988;60.086;30.354;2023-03-01T09:12:12;101156.22;;;-1.41;54.83
78673;BME280;67988;60.086;30.354;2023-03-01T09:14:39;101156.72;;;-1.24;54.00
78673;BME280;67988;60.086;30.354;2023-03-01T09:17:10;101145.22;;;-1.15;53.75
78673;BME280;67988;60.086;30.354;2023-03-01T09:19:37;101147.16;;;-1.23;53.68
78673;BME280;67988;60.086;30.354;2023-03-01T09:22:04;101149.94;;;-1.31;54.07
78673;BME280;67988;60.086;30.354;2023-03-01T09:24:31;101143.13;;;-1.38;54.50
78673;BME280;67988;60.086;30.354;2023-03-01T09:26:58;101145.91;;;-1.07;54.03
78673;BME280;67988;60.086;30.354;2023-03-01T09:29:26;101140.69;;;-1.07;53.80
78673;BME280;67988;60.086;30.354;2023-03-01T09:31:53;101161.41;;;-1.00;53.24
78673;BME280;67988;60.086;30.354;2023-03-01T09:34:23;101149.13;;;-0.98;53.20
78673;BME280;67988;60.086;30.354;2023-03-01T09:36:50;101158.94;;;-1.07;53.47
78673;BME280;67988;60.086;30.354;2023-03-01T09:39:17;101114.78;;;-0.81;52.82
78673;BME280;67988;60.086;30.354;2023-03-01T09:41:49;101111.75;;;-0.64;52.15
78673;BME280;67988;60.086;30.354;2023-03-01T09:44:28;101082.41;;;-0.75;51.61
78673;BME280;67988;60.086;30.354;2023-03-01T09:46:57;101102.41;;;-0.73;51.73
78673;BME280;67988;60.086;30.354;2023-03-01T09:49:26;101120.41;;;-0.62;51.91
78673;BME280;67988;60.086;30.354;2023-03-01T09:51:59;101119.38;;;-0.55;51.84
78673;BME280;67988;60.086;30.354;2023-03-01T09:54:27;101131.75;;;-0.63;51.67
78673;BME280;67988;60.086;30.354;2023-03-01T09:57:05;101118.31;;;-0.82;52.20
78673;BME280;67988;60.086;30.354;2023-03-01T09:59:41;101117.88;;;-1.01;52.65
78673;BME280;67988;60.086;30.354;2023-03-01T10:02:23;101108.94;;;-0.91;52.60
78673;BME280;67988;60.086;30.354;2023-03-01T10:04:54;101124.53;;;-0.88;53.15
78673;BME280;67988;60.086;30.354;2023-03-01T10:07:28;101122.44;;;-0.73;52.59
78673;BME280;67988;60.086;30.354;2023-03-01T10:09:57;101095.19;;;-0.65;52.54
78673;BME280;67988;60.086;30.354;2023-03-01T10:12:27;101104.31;;;-0.47;52.29
78673;BME280;67988;60.086;30.354;2023-03-01T10:15:02;101111.47;;;-0.54;52.48
78673;BME280;67988;60.086;30.354;2023-03-01T10:17:34;101098.81;;;-0.36;52.63
78673;BME280;67988;60.086;30.354;2023-03-01T10:20:20;101111.84;;;-0.35;52.91
78673;BME280;67988;60.086;30.354;2023-03-01T10:22:47;101094.47;;;-0.37;53.24
78673;BME280;67988;60.086;30.354;2023-03-01T10:25:28;101091.34;;;-0.50;54.02
78673;BME280;67988;60.086;30.354;2023-03-01T10:28:02;101080.66;;;-0.43;54.29
78673;BME280;67988;60.086;30.354;2023-03-01T10:30:35;101082.31;;;-0.38;54.13
78673;BME280;67988;60.086;30.354;2023-03-01T10:33:07;101077.41;;;-0.18;54.06
78673;BME280;67988;60.086;30.354;2023-03-01T10:35:41;101080.28;;;-0.27;54.65
78673;BME280;67988;60.086;30.354;2023-03-01T10:38:10;101073.19;;;-0.24;54.90
78673;BME280;67988;60.086;30.354;2023-03-01T10:40:50;101067.63;;;-0.12;54.97
78673;BME280;67988;60.086;30.354;2023-03-01T10:43:17;101077.31;;;-0.48;56.84
78673;BME280;67988;60.086;30.354;2023-03-01T10:45:45;101075.84;;;-0.58;57.98
78673;BME280;67988;60.086;30.354;2023-03-01T10:48:14;101084.88;;;-0.69;58.81
78673;BME280;67988;60.086;30.354;2023-03-01T10:50:44;101042.28;;;-0.71;59.33
78673;BME280;67988;60.086;30.354;2023-03-01T10:53:26;101056.84;;;-0.63;59.32
78673;BME280;67988;60.086;30.354;2023-03-01T10:56:00;101054.50;;;-0.41;58.72
78673;BME280;67988;60.086;30.354;2023-03-01T10:58:29;101044.63;;;-0.31;59.04
78673;BME280;67988;60.086;30.354;2023-03-01T11:00:57;101037.72;;;-0.03;58.20
78673;BME280;67988;60.086;30.354;2023-03-01T11:03:27;101027.34;;;-0.06;57.56
78673;BME280;67988;60.086;30.354;2023-03-01T11:06:02;101025.22;;;0.07;57.80
78673;BME280;67988;60.086;30.354;2023-03-01T11:08:40;101035.25;;;-0.08;58.33
78673;BME280;67988;60.086;30.354;2023-03-01T11:11:18;101018.72;;;0.20;57.37
78673;BME280;67988;60.086;30.354;2023-03-01T11:13:57;101035.13;;;0.25;56.78
78673;BME280;67988;60.086;30.354;2023-03-01T11:16:29;101019.91;;;0.10;57.34
78673;BME280;67988;60.086;30.354;2023-03-01T11:19:00;100998.53;;;-0.05;58.35
78673;BME280;67988;60.086;30.354;2023-03-01T11:21:31;100998.72;;;0.17;57.76
78673;BME280;67988;60.086;30.354;2023-03-01T11:24:00;101002.91;;;0.23;57.63
78673;BME280;67988;60.086;30.354;2023-03-01T11:26:31;100935.00;;;-0.37;58.27
78673;BME280;67988;60.086;30.354;2023-03-01T11:29:16;100976.66;;;-0.02;58.56
78673;BME280;67988;60.086;30.354;2023-03-01T11:31:46;100983.69;;;0.24;58.25
78673;BME280;67988;60.086;30.354;2023-03-01T11:34:17;100998.66;;;0.20;58.02
78673;BME280;67988;60.086;30.354;2023-03-01T11:36:51;100987.28;;;0.21;58.50
78673;BME280;67988;60.086;30.354;2023-03-01T11:39:25;100990.84;;;0.19;58.85
78673;BME280;67988;60.086;30.354;2023-03-01T11:42:04;100983.19;;;0.13;59.32
78673;BME280;67988;60.086;30.354;2023-03-01T11:44:35;100952.59;;;-0.13;59.03
78673;BME280;67988;60.086;30.354;2023-03-01T11:47:25;100977.91;;;0.14;59.43
78673;BME280;67988;60.086;30.354;2023-03-01T11:50:07;100974.75;;;0.03;60.05
78673;BME280;67988;60.086;30.354;2023-03-01T11:52:46;100968.47;;;0.09;60.29
78673;BME280;67988;60.086;30.354;2023-03-01T11:55:28;100969.38;;;0.08;60.19
78673;BME280;67988;60.086;30.354;2023-03-01T11:58:11;100960.31;;;-0.10;60.52
78673;BME280;67988;60.086;30.354;2023-03-01T12:00:55;100965.81;;;0.10;60.30
78673;BME280;67988;60.086;30.354;2023-03-01T12:06:40;100956.56;;;0.00;60.75
78673;BME280;67988;60.086;30.354;2023-03-01T12:09:27;100960.72;;;0.06;60.88
78673;BME280;67988;60.086;30.354;2023-03-01T12:12:22;100986.03;;;0.05;60.80
78673;BME280;67988;60.086;30.354;2023-03-01T12:15:07;100969.56;;;0.02;61.00
78673;BME280;67988;60.086;30.354;2023-03-01T12:17:48;100948.53;;;-0.23;62.50
78673;BME280;67988;60.086;30.354;2023-03-01T12:20:25;100976.66;;;-0.31;63.81
78673;BME280;67988;60.086;30.354;2023-03-01T12:23:07;100945.06;;;-0.24;64.58
78673;BME280;67988;60.086;30.354;2023-03-01T12:25:45;100956.34;;;-0.51;66.44
78673;BME280;67988;60.086;30.354;2023-03-01T12:28:28;100939.25;;;-0.33;66.80
78673;BME280;67988;60.086;30.354;2023-03-01T12:31:08;100954.31;;;-0.42;68.19
78673;BME280;67988;60.086;30.354;2023-03-01T12:33:46;100946.25;;;-0.65;69.92
78673;BME280;67988;60.086;30.354;2023-03-01T12:36:38;100943.25;;;-0.51;70.13
78673;BME280;67988;60.086;30.354;2023-03-01T12:39:21;100886.22;;;-0.66;70.58
78673;BME280;67988;60.086;30.354;2023-03-01T12:41:58;100932.97;;;-0.57;71.63
78673;BME280;67988;60.086;30.354;2023-03-01T12:44:39;100928.13;;;-0.71;72.74
78673;BME280;67988;60.086;30.354;2023-03-01T12:47:18;100921.16;;;-0.70;73.31
78673;BME280;67988;60.086;30.354;2023-03-01T12:49:53;100874.63;;;-1.18;74.06
78673;BME280;67988;60.086;30.354;2023-03-01T12:52:24;100925.34;;;-0.94;75.19
78673;BME280;67988;60.086;30.354;2023-03-01T12:54:57;100932.78;;;-0.80;74.91
78673;BME280;67988;60.086;30.354;2023-03-01T12:57:29;100936.22;;;-0.78;75.49
78673;BME280;67988;60.086;30.354;2023-03-01T13:00:16;100933.00;;;-0.88;75.99